^^
Saratoga-Weather Station Historical Data
Daily Summary for September 8, 2021 Units:  Both    English   Metric
Daily Weekly Monthly Yearly Custom
  High: Low: Average:
Temperature: 47.3 °F /  8.5 °C 32.5 °F /  0.3 °C 38.8 °F /  3.8 °C
Dew Point: 44.4 °F /  6.9 °C 31.5 °F /  -0.3 °C 37.4 °F /  3 °C
Humidity: 97% 88% 95%
Wind Speed: 2.9mph /  4.7km/h - 0.3mph /  0.5km/h
Wind Gust: 5mph /  8km/h - -
Wind- - SE
Pressure: 30.3 in /  1025.7 hPa 30.2 in /  1021.3 hPa -
Precipitation: 0 in /  0.0 mm    
Historical Graphs
 
 
Tabular Data for September 8, 2021
Time Temperature Dew Point Pressure Wind Wind Speed Wind Gust Humidity Rainfall Rate (Hourly) solar
00:04 42.1 °F /  5.6 °C 39.4 °F /  4.1 °C 30.2in /  1021.3hPa East 2mph /  3.2km/h 2mph /  3.2km/h 90% 0in /  0.0mm 0 W/m2
00:09 41.5 °F /  5.3 °C 38.8 °F /  3.8 °C 30.2in /  1021.3hPa ESE 2.9mph /  4.7km/h 3mph /  4.8km/h 90% 0in /  0.0mm 0 W/m2
00:14 41 °F /  5 °C 38.3 °F /  3.5 °C 30.2in /  1021.3hPa ESE 0.9mph /  1.4km/h 2mph /  3.2km/h 90% 0in /  0.0mm 0 W/m2
00:19 40.6 °F /  4.8 °C 38.3 °F /  3.5 °C 30.2in /  1021.3hPa ESE 2mph /  3.2km/h 3mph /  4.8km/h 91% 0in /  0.0mm 0 W/m2
00:24 40.3 °F /  4.6 °C 38.1 °F /  3.4 °C 30.2in /  1021.3hPa Calm   2mph /  3.2km/h 92% 0in /  0.0mm 0 W/m2
00:29 40.1 °F /  4.5 °C 37.9 °F /  3.3 °C 30.2in /  1021.3hPa Calm   3mph /  4.8km/h 92% 0in /  0.0mm 0 W/m2
00:34 39.7 °F /  4.3 °C 37.6 °F /  3.1 °C 30.2in /  1021.3hPa Calm     92% 0in /  0.0mm 0 W/m2
00:39 39.6 °F /  4.2 °C 37.8 °F /  3.2 °C 30.2in /  1021.7hPa ESE 0.9mph /  1.4km/h 3mph /  4.8km/h 93% 0in /  0.0mm 0 W/m2
00:44 39.6 °F /  4.2 °C 37.8 °F /  3.2 °C 30.2in /  1021.3hPa Calm     93% 0in /  0.0mm 0 W/m2
00:49 39.4 °F /  4.1 °C 37.6 °F /  3.1 °C 30.2in /  1021.3hPa NW 2mph /  3.2km/h 2mph /  3.2km/h 93% 0in /  0.0mm 0 W/m2
00:54 39.4 °F /  4.1 °C 37.8 °F /  3.2 °C 30.2in /  1021.3hPa West 2mph /  3.2km/h 2mph /  3.2km/h 94% 0in /  0.0mm 0 W/m2
00:59 39.4 °F /  4.1 °C 37.8 °F /  3.2 °C 30.2in /  1021.3hPa Calm     94% 0in /  0.0mm 0 W/m2
01:04 39.2 °F /  4 °C 37.6 °F /  3.1 °C 30.2in /  1021.3hPa Calm     94% 0in /  0.0mm 0 W/m2
01:09 39 °F /  3.9 °C 37.4 °F /  3 °C 30.2in /  1021.3hPa Calm     94% 0in /  0.0mm 0 W/m2
01:14 38.8 °F /  3.8 °C 37.2 °F /  2.9 °C 30.2in /  1021.3hPa Calm     94% 0in /  0.0mm 0 W/m2
01:19 39 °F /  3.9 °C 37.4 °F /  3 °C 30.2in /  1021.3hPa Calm     94% 0in /  0.0mm 0 W/m2
01:24 39 °F /  3.9 °C 37.8 °F /  3.2 °C 30.2in /  1021.3hPa ESE 2mph /  3.2km/h 3mph /  4.8km/h 95% 0in /  0.0mm 0 W/m2
01:29 39 °F /  3.9 °C 37.8 °F /  3.2 °C 30.2in /  1021.3hPa ESE 2mph /  3.2km/h 3mph /  4.8km/h 95% 0in /  0.0mm 0 W/m2
01:34 39 °F /  3.9 °C 37.8 °F /  3.2 °C 30.2in /  1021.3hPa ESE 0.9mph /  1.4km/h 1mph /  1.6km/h 95% 0in /  0.0mm 0 W/m2
01:39 38.8 °F /  3.8 °C 37.2 °F /  2.9 °C 30.2in /  1021.3hPa Calm     94% 0in /  0.0mm 0 W/m2
01:44 38.7 °F /  3.7 °C 37 °F /  2.8 °C 30.2in /  1021.3hPa Calm     94% 0in /  0.0mm 0 W/m2
01:49 38.5 °F /  3.6 °C 37.2 °F /  2.9 °C 30.2in /  1021.3hPa South 0.9mph /  1.4km/h 2mph /  3.2km/h 95% 0in /  0.0mm 0 W/m2
01:54 38.1 °F /  3.4 °C 36.5 °F /  2.5 °C 30.2in /  1021.3hPa West 2.9mph /  4.7km/h 3mph /  4.8km/h 94% 0in /  0.0mm 0 W/m2
01:59 38.1 °F /  3.4 °C 36.9 °F /  2.7 °C 30.2in /  1021.3hPa West 2mph /  3.2km/h 3mph /  4.8km/h 95% 0in /  0.0mm 0 W/m2
02:04 38.1 °F /  3.4 °C 36.9 °F /  2.7 °C 30.2in /  1021.3hPa West 2mph /  3.2km/h 4mph /  6.4km/h 95% 0in /  0.0mm 0 W/m2
02:09 38.5 °F /  3.6 °C 37.2 °F /  2.9 °C 30.2in /  1021.3hPa West 2mph /  3.2km/h 5mph /  8km/h 95% 0in /  0.0mm 0 W/m2
02:14 38.5 °F /  3.6 °C 37.2 °F /  2.9 °C 30.2in /  1021.3hPa West 0.9mph /  1.4km/h 2mph /  3.2km/h 95% 0in /  0.0mm 0 W/m2
02:19 38.7 °F /  3.7 °C 37.4 °F /  3 °C 30.2in /  1021.3hPa WNW 0.9mph /  1.4km/h 5mph /  8km/h 95% 0in /  0.0mm 0 W/m2
02:24 38.7 °F /  3.7 °C 37.4 °F /  3 °C 30.2in /  1021.3hPa Calm   2mph /  3.2km/h 95% 0in /  0.0mm 0 W/m2
02:29 38.7 °F /  3.7 °C 37.4 °F /  3 °C 30.2in /  1021.3hPa Calm   1mph /  1.6km/h 95% 0in /  0.0mm 0 W/m2
02:34 38.5 °F /  3.6 °C 37.2 °F /  2.9 °C 30.2in /  1021.3hPa Calm     95% 0in /  0.0mm 0 W/m2
02:39 38.3 °F /  3.5 °C 37 °F /  2.8 °C 30.2in /  1021.3hPa Calm     95% 0in /  0.0mm 0 W/m2
02:44 38.1 °F /  3.4 °C 36.9 °F /  2.7 °C 30.2in /  1021.3hPa WNW 0.9mph /  1.4km/h 2mph /  3.2km/h 95% 0in /  0.0mm 0 W/m2
02:49 37.9 °F /  3.3 °C 36.7 °F /  2.6 °C 30.2in /  1021.3hPa Calm   2mph /  3.2km/h 95% 0in /  0.0mm 0 W/m2
02:54 37.9 °F /  3.3 °C 36.7 °F /  2.6 °C 30.2in /  1021.3hPa Calm     95% 0in /  0.0mm 0 W/m2
02:59 37.9 °F /  3.3 °C 36.7 °F /  2.6 °C 30.2in /  1021.7hPa Calm     95% 0in /  0.0mm 0 W/m2
03:04 37.8 °F /  3.2 °C 36.5 °F /  2.5 °C 30.2in /  1021.3hPa Calm     95% 0in /  0.0mm 0 W/m2
03:09 37.6 °F /  3.1 °C 36.3 °F /  2.4 °C 30.2in /  1021.3hPa Calm   2mph /  3.2km/h 95% 0in /  0.0mm 0 W/m2
03:14 37.4 °F /  3 °C 36.1 °F /  2.3 °C 30.2in /  1021.3hPa South 0.9mph /  1.4km/h 2mph /  3.2km/h 95% 0in /  0.0mm 0 W/m2
03:19 37.4 °F /  3 °C 36.1 °F /  2.3 °C 30.2in /  1021.7hPa East 2mph /  3.2km/h 4mph /  6.4km/h 95% 0in /  0.0mm 0 W/m2
03:24 37.6 °F /  3.1 °C 36.3 °F /  2.4 °C 30.2in /  1021.7hPa Calm     95% 0in /  0.0mm 0 W/m2
03:29 37.4 °F /  3 °C 36.1 °F /  2.3 °C 30.2in /  1021.7hPa ESE 0.9mph /  1.4km/h 4mph /  6.4km/h 95% 0in /  0.0mm 0 W/m2
03:34 37.2 °F /  2.9 °C 36 °F /  2.2 °C 30.2in /  1022.0hPa Calm     95% 0in /  0.0mm 0 W/m2
03:39 37 °F /  2.8 °C 35.8 °F /  2.1 °C 30.2in /  1021.7hPa Calm   2mph /  3.2km/h 95% 0in /  0.0mm 0 W/m2
03:44 36.9 °F /  2.7 °C 35.6 °F /  2 °C 30.2in /  1021.7hPa Calm     95% 0in /  0.0mm 0 W/m2
03:49 36.7 °F /  2.6 °C 35.4 °F /  1.9 °C 30.2in /  1021.7hPa Calm   2mph /  3.2km/h 95% 0in /  0.0mm 0 W/m2
03:54 36.5 °F /  2.5 °C 35.2 °F /  1.8 °C 30.2in /  1021.7hPa Calm   1mph /  1.6km/h 95% 0in /  0.0mm 0 W/m2
03:59 36.3 °F /  2.4 °C 35.1 °F /  1.7 °C 30.2in /  1021.7hPa Calm     95% 0in /  0.0mm 0 W/m2
04:04 36.1 °F /  2.3 °C 34.9 °F /  1.6 °C 30.2in /  1021.7hPa NW 0.9mph /  1.4km/h 1mph /  1.6km/h 95% 0in /  0.0mm 0 W/m2
04:09 36.1 °F /  2.3 °C 34.9 °F /  1.6 °C 30.2in /  1021.7hPa Calm     95% 0in /  0.0mm 0 W/m2
04:14 36 °F /  2.2 °C 34.7 °F /  1.5 °C 30.2in /  1021.7hPa Calm     95% 0in /  0.0mm 0 W/m2
04:19 35.8 °F /  2.1 °C 34.5 °F /  1.4 °C 30.2in /  1021.7hPa Calm     95% 0in /  0.0mm 0 W/m2
04:24 35.6 °F /  2 °C 34.3 °F /  1.3 °C 30.2in /  1021.7hPa Calm     95% 0in /  0.0mm 0 W/m2
04:29 35.4 °F /  1.9 °C 34.2 °F /  1.2 °C 30.2in /  1021.7hPa Calm     95% 0in /  0.0mm 0 W/m2
04:34 35.2 °F /  1.8 °C 34 °F /  1.1 °C 30.2in /  1021.7hPa Calm     95% 0in /  0.0mm 0 W/m2
04:39 35.2 °F /  1.8 °C 34 °F /  1.1 °C 30.2in /  1021.7hPa Calm     95% 0in /  0.0mm 0 W/m2
04:44 35.1 °F /  1.7 °C 33.8 °F /  1 °C 30.2in /  1021.7hPa Calm     95% 0in /  0.0mm 0 W/m2
04:49 34.9 °F /  1.6 °C 33.6 °F /  0.9 °C 30.2in /  1021.7hPa Calm     95% 0in /  0.0mm 0 W/m2
04:54 34.9 °F /  1.6 °C 33.6 °F /  0.9 °C 30.2in /  1021.7hPa Calm     95% 0in /  0.0mm 0 W/m2
04:59 34.9 °F /  1.6 °C 33.8 °F /  1 °C 30.2in /  1021.7hPa Calm     96% 0in /  0.0mm 0 W/m2
05:05 34.7 °F /  1.5 °C 33.6 °F /  0.9 °C 30.2in /  1021.7hPa Calm     96% 0in /  0.0mm 0 W/m2
05:10 34.5 °F /  1.4 °C 33.3 °F /  0.7 °C 30.2in /  1022.0hPa Calm     95% 0in /  0.0mm 0 W/m2
05:15 34.5 °F /  1.4 °C 33.3 °F /  0.7 °C 30.2in /  1022.0hPa Calm     95% 0in /  0.0mm 0 W/m2
05:20 34.3 °F /  1.3 °C 33.1 °F /  0.6 °C 30.2in /  1022.0hPa Calm     95% 0in /  0.0mm 0 W/m2
05:25 34.5 °F /  1.4 °C 33.4 °F /  0.8 °C 30.2in /  1022.0hPa Calm     96% 0in /  0.0mm 0 W/m2
05:30 34.5 °F /  1.4 °C 33.4 °F /  0.8 °C 30.2in /  1022.0hPa Calm     96% 0in /  0.0mm 0 W/m2
05:35 34.5 °F /  1.4 °C 33.4 °F /  0.8 °C 30.2in /  1022.0hPa Calm     96% 0in /  0.0mm 0 W/m2
05:40 34.5 °F /  1.4 °C 33.4 °F /  0.8 °C 30.2in /  1022.0hPa Calm     96% 0in /  0.0mm 0 W/m2
05:45 34.9 °F /  1.6 °C 33.8 °F /  1 °C 30.2in /  1022.0hPa Calm     96% 0in /  0.0mm 0 W/m2
05:50 34.9 °F /  1.6 °C 33.8 °F /  1 °C 30.2in /  1022.0hPa Calm     96% 0in /  0.0mm 0 W/m2
05:55 34.9 °F /  1.6 °C 33.8 °F /  1 °C 30.2in /  1022.0hPa Calm     96% 0in /  0.0mm 0 W/m2
06:00 34.9 °F /  1.6 °C 33.8 °F /  1 °C 30.2in /  1022.0hPa Calm     96% 0in /  0.0mm 0 W/m2
06:05 35.1 °F /  1.7 °C 34 °F /  1.1 °C 30.2in /  1022.0hPa Calm     96% 0in /  0.0mm 0 W/m2
06:10 35.1 °F /  1.7 °C 34 °F /  1.1 °C 30.2in /  1022.0hPa Calm     96% 0in /  0.0mm 0 W/m2
06:15 35.1 °F /  1.7 °C 34 °F /  1.1 °C 30.2in /  1022.0hPa Calm     96% 0in /  0.0mm 0 W/m2
06:20 35.2 °F /  1.8 °C 34.2 °F /  1.2 °C 30.2in /  1022.4hPa Calm     96% 0in /  0.0mm 0 W/m2
06:25 35.1 °F /  1.7 °C 34 °F /  1.1 °C 30.2in /  1022.4hPa Calm     96% 0in /  0.0mm 0 W/m2
06:30 35.1 °F /  1.7 °C 34 °F /  1.1 °C 30.2in /  1022.4hPa Calm     96% 0in /  0.0mm 0 W/m2
06:40 34.7 °F /  1.5 °C 33.6 °F /  0.9 °C 30.2in /  1022.4hPa Calm     96% 0in /  0.0mm 0 W/m2
06:45 34.5 °F /  1.4 °C 33.4 °F /  0.8 °C 30.2in /  1022.4hPa Calm     96% 0in /  0.0mm 0 W/m2
06:50 34.5 °F /  1.4 °C 33.4 °F /  0.8 °C 30.2in /  1022.0hPa Calm     96% 0in /  0.0mm 0 W/m2
06:55 34.3 °F /  1.3 °C 33.3 °F /  0.7 °C 30.2in /  1022.4hPa Calm     96% 0in /  0.0mm 0 W/m2
07:00 34.3 °F /  1.3 °C 33.3 °F /  0.7 °C 30.2in /  1022.4hPa Calm     96% 0in /  0.0mm 0 W/m2
07:05 34.3 °F /  1.3 °C 33.3 °F /  0.7 °C 30.2in /  1022.4hPa Calm     96% 0in /  0.0mm 0 W/m2
07:10 34.2 °F /  1.2 °C 33.1 °F /  0.6 °C 30.2in /  1022.4hPa Calm     96% 0in /  0.0mm 0 W/m2
07:15 34 °F /  1.1 °C 32.9 °F /  0.5 °C 30.2in /  1022.4hPa Calm     96% 0in /  0.0mm 0 W/m2
07:20 34 °F /  1.1 °C 32.9 °F /  0.5 °C 30.2in /  1022.4hPa Calm     96% 0in /  0.0mm 0 W/m2
07:25 33.8 °F /  1 °C 32.7 °F /  0.4 °C 30.2in /  1022.4hPa Calm     96% 0in /  0.0mm 0 W/m2
07:35 33.6 °F /  0.9 °C 32.5 °F /  0.3 °C 30.2in /  1022.7hPa Calm     96% 0in /  0.0mm 5 W/m2
07:40 33.6 °F /  0.9 °C 32.5 °F /  0.3 °C 30.2in /  1022.7hPa Calm     96% 0in /  0.0mm 7 W/m2
07:45 33.6 °F /  0.9 °C 32.5 °F /  0.3 °C 30.2in /  1022.7hPa Calm     96% 0in /  0.0mm 11 W/m2
07:50 33.6 °F /  0.9 °C 32.5 °F /  0.3 °C 30.2in /  1023.0hPa Calm     96% 0in /  0.0mm 12 W/m2
07:55 33.4 °F /  0.8 °C 32.4 °F /  0.2 °C 30.2in /  1023.0hPa Calm     96% 0in /  0.0mm 14 W/m2
08:00 33.4 °F /  0.8 °C 32.4 °F /  0.2 °C 30.2in /  1023.0hPa East 0.9mph /  1.4km/h 2mph /  3.2km/h 96% 0in /  0.0mm 16 W/m2
08:05 33.3 °F /  0.7 °C 32.2 °F /  0.1 °C 30.2in /  1023.0hPa Calm   1mph /  1.6km/h 96% 0in /  0.0mm 19 W/m2
08:10 32.9 °F /  0.5 °C 31.8 °F /  -0.1 °C 30.2in /  1023.0hPa Calm     96% 0in /  0.0mm 23 W/m2
08:15 32.7 °F /  0.4 °C 31.6 °F /  -0.2 °C 30.2in /  1023.4hPa Calm     96% 0in /  0.0mm 26 W/m2
08:25 32.5 °F /  0.3 °C 31.5 °F /  -0.3 °C 30.2in /  1023.4hPa Calm     96% 0in /  0.0mm 37 W/m2
08:30 32.5 °F /  0.3 °C 31.5 °F /  -0.3 °C 30.2in /  1023.4hPa Calm     96% 0in /  0.0mm 32 W/m2
08:35 32.7 °F /  0.4 °C 31.6 °F /  -0.2 °C 30.2in /  1023.4hPa Calm     96% 0in /  0.0mm 33 W/m2
08:40 33.1 °F /  0.6 °C 32 °F /  0 °C 30.2in /  1023.4hPa Calm     96% 0in /  0.0mm 39 W/m2
08:45 33.3 °F /  0.7 °C 32.2 °F /  0.1 °C 30.2in /  1023.4hPa Calm     96% 0in /  0.0mm 40 W/m2
08:50 33.4 °F /  0.8 °C 32.4 °F /  0.2 °C 30.2in /  1023.4hPa Calm     96% 0in /  0.0mm 42 W/m2
08:55 33.6 °F /  0.9 °C 32.9 °F /  0.5 °C 30.2in /  1023.4hPa Calm     97% 0in /  0.0mm 74 W/m2
09:00 34 °F /  1.1 °C 33.3 °F /  0.7 °C 30.2in /  1023.4hPa Calm     97% 0in /  0.0mm 72 W/m2
09:05 34.2 °F /  1.2 °C 33.1 °F /  0.6 °C 30.2in /  1023.4hPa Calm     96% 0in /  0.0mm 76 W/m2
09:10 34.3 °F /  1.3 °C 33.6 °F /  0.9 °C 30.2in /  1023.4hPa Calm     97% 0in /  0.0mm 56 W/m2
09:15 34.5 °F /  1.4 °C 33.8 °F /  1 °C 30.2in /  1023.4hPa Calm     97% 0in /  0.0mm 60 W/m2
09:20 34.7 °F /  1.5 °C 34 °F /  1.1 °C 30.2in /  1023.4hPa ENE 0.9mph /  1.4km/h 2mph /  3.2km/h 97% 0in /  0.0mm 67 W/m2
09:25 35.1 °F /  1.7 °C 34.3 °F /  1.3 °C 30.2in /  1023.7hPa ESE 2mph /  3.2km/h 3mph /  4.8km/h 97% 0in /  0.0mm 74 W/m2
09:30 35.1 °F /  1.7 °C 34.3 °F /  1.3 °C 30.2in /  1023.4hPa Calm     97% 0in /  0.0mm 70 W/m2
09:35 35.2 °F /  1.8 °C 34.5 °F /  1.4 °C 30.2in /  1023.7hPa ENE 0.9mph /  1.4km/h 3mph /  4.8km/h 97% 0in /  0.0mm 74 W/m2
09:40 35.2 °F /  1.8 °C 34.5 °F /  1.4 °C 30.2in /  1023.7hPa Calm   2mph /  3.2km/h 97% 0in /  0.0mm 58 W/m2
09:45 35.2 °F /  1.8 °C 34.5 °F /  1.4 °C 30.2in /  1023.7hPa Calm     97% 0in /  0.0mm 53 W/m2
09:50 35.2 °F /  1.8 °C 34.5 °F /  1.4 °C 30.2in /  1023.7hPa Calm   2mph /  3.2km/h 97% 0in /  0.0mm 53 W/m2
09:55 35.4 °F /  1.9 °C 34.7 °F /  1.5 °C 30.2in /  1023.7hPa Calm     97% 0in /  0.0mm 60 W/m2
10:00 35.6 °F /  2 °C 34.9 °F /  1.6 °C 30.2in /  1023.7hPa Calm     97% 0in /  0.0mm 60 W/m2
10:05 36 °F /  2.2 °C 35.2 °F /  1.8 °C 30.2in /  1023.7hPa Calm     97% 0in /  0.0mm 65 W/m2
10:10 36.3 °F /  2.4 °C 35.6 °F /  2 °C 30.2in /  1023.7hPa ENE 2mph /  3.2km/h 3mph /  4.8km/h 97% 0in /  0.0mm 65 W/m2
10:15 36.9 °F /  2.7 °C 36.1 °F /  2.3 °C 30.2in /  1023.7hPa ENE 2mph /  3.2km/h 2mph /  3.2km/h 97% 0in /  0.0mm 69 W/m2
10:20 36.9 °F /  2.7 °C 36.1 °F /  2.3 °C 30.2in /  1023.7hPa East 0.9mph /  1.4km/h 3mph /  4.8km/h 97% 0in /  0.0mm 102 W/m2
10:25 36.9 °F /  2.7 °C 36.1 °F /  2.3 °C 30.2in /  1023.7hPa East 0.9mph /  1.4km/h 3mph /  4.8km/h 97% 0in /  0.0mm 109 W/m2
10:30 36.9 °F /  2.7 °C 36.1 °F /  2.3 °C 30.2in /  1023.7hPa East 0.9mph /  1.4km/h 2mph /  3.2km/h 97% 0in /  0.0mm 125 W/m2
10:35 37 °F /  2.8 °C 36.3 °F /  2.4 °C 30.2in /  1023.7hPa ESE 0.9mph /  1.4km/h 3mph /  4.8km/h 97% 0in /  0.0mm 118 W/m2
10:40 37.2 °F /  2.9 °C 36.5 °F /  2.5 °C 30.2in /  1023.7hPa ENE 0.9mph /  1.4km/h 2mph /  3.2km/h 97% 0in /  0.0mm 118 W/m2
10:45 37.4 °F /  3 °C 36.7 °F /  2.6 °C 30.2in /  1023.7hPa Calm   3mph /  4.8km/h 97% 0in /  0.0mm 104 W/m2
10:51 37.6 °F /  3.1 °C 36.9 °F /  2.7 °C 30.2in /  1023.7hPa ENE 0.9mph /  1.4km/h 2mph /  3.2km/h 97% 0in /  0.0mm 125 W/m2
10:56 37.8 °F /  3.2 °C 37 °F /  2.8 °C 30.2in /  1023.7hPa Calm   1mph /  1.6km/h 97% 0in /  0.0mm 113 W/m2
11:01 37.9 °F /  3.3 °C 37.2 °F /  2.9 °C 30.2in /  1023.7hPa Calm   1mph /  1.6km/h 97% 0in /  0.0mm 90 W/m2
11:06 37.9 °F /  3.3 °C 37.2 °F /  2.9 °C 30.2in /  1023.7hPa Calm     97% 0in /  0.0mm 70 W/m2
11:11 38.1 °F /  3.4 °C 37.4 °F /  3 °C 30.2in /  1023.7hPa Calm     97% 0in /  0.0mm 72 W/m2
11:16 38.5 °F /  3.6 °C 37.8 °F /  3.2 °C 30.2in /  1023.7hPa Calm   1mph /  1.6km/h 97% 0in /  0.0mm 67 W/m2
11:21 38.8 °F /  3.8 °C 38.1 °F /  3.4 °C 30.2in /  1023.7hPa Calm     97% 0in /  0.0mm 69 W/m2
11:26 39.2 °F /  4 °C 38.5 °F /  3.6 °C 30.2in /  1023.7hPa Calm   2mph /  3.2km/h 97% 0in /  0.0mm 67 W/m2
11:31 39.6 °F /  4.2 °C 38.8 °F /  3.8 °C 30.2in /  1024.0hPa East 2mph /  3.2km/h 3mph /  4.8km/h 97% 0in /  0.0mm 77 W/m2
11:36 39.7 °F /  4.3 °C 39 °F /  3.9 °C 30.2in /  1024.0hPa ENE 2mph /  3.2km/h 3mph /  4.8km/h 97% 0in /  0.0mm 83 W/m2
11:41 39.7 °F /  4.3 °C 39 °F /  3.9 °C 30.2in /  1024.0hPa ESE 0.9mph /  1.4km/h 3mph /  4.8km/h 97% 0in /  0.0mm 100 W/m2
11:46 39.7 °F /  4.3 °C 39 °F /  3.9 °C 30.2in /  1024.0hPa ESE 2mph /  3.2km/h 4mph /  6.4km/h 97% 0in /  0.0mm 149 W/m2
11:51 39.9 °F /  4.4 °C 39.2 °F /  4 °C 30.2in /  1023.7hPa ENE 2mph /  3.2km/h 3mph /  4.8km/h 97% 0in /  0.0mm 148 W/m2
11:56 39.9 °F /  4.4 °C 39.2 °F /  4 °C 30.2in /  1024.0hPa ESE 2mph /  3.2km/h 3mph /  4.8km/h 97% 0in /  0.0mm 162 W/m2
12:01 39.9 °F /  4.4 °C 39.2 °F /  4 °C 30.2in /  1024.0hPa ENE 2mph /  3.2km/h 3mph /  4.8km/h 97% 0in /  0.0mm 162 W/m2
12:06 39.9 °F /  4.4 °C 39.2 °F /  4 °C 30.2in /  1024.0hPa ESE 0.9mph /  1.4km/h 2mph /  3.2km/h 97% 0in /  0.0mm 174 W/m2
12:11 40.3 °F /  4.6 °C 39.6 °F /  4.2 °C 30.2in /  1023.7hPa ESE 2mph /  3.2km/h 3mph /  4.8km/h 97% 0in /  0.0mm 174 W/m2
12:16 40.5 °F /  4.7 °C 39.7 °F /  4.3 °C 30.2in /  1023.7hPa East 0.9mph /  1.4km/h 3mph /  4.8km/h 97% 0in /  0.0mm 169 W/m2
12:21 40.6 °F /  4.8 °C 39.9 °F /  4.4 °C 30.2in /  1023.7hPa East 2mph /  3.2km/h 3mph /  4.8km/h 97% 0in /  0.0mm 155 W/m2
12:26 40.6 °F /  4.8 °C 39.9 °F /  4.4 °C 30.2in /  1023.7hPa East 0.9mph /  1.4km/h 4mph /  6.4km/h 97% 0in /  0.0mm 151 W/m2
12:31 40.6 °F /  4.8 °C 39.9 °F /  4.4 °C 30.2in /  1023.7hPa ESE 2mph /  3.2km/h 2mph /  3.2km/h 97% 0in /  0.0mm 169 W/m2
12:36 40.6 °F /  4.8 °C 39.9 °F /  4.4 °C 30.2in /  1023.7hPa Calm   4mph /  6.4km/h 97% 0in /  0.0mm 174 W/m2
12:41 40.6 °F /  4.8 °C 39.9 °F /  4.4 °C 30.2in /  1023.4hPa East 2mph /  3.2km/h 3mph /  4.8km/h 97% 0in /  0.0mm 188 W/m2
12:46 40.8 °F /  4.9 °C 40.1 °F /  4.5 °C 30.2in /  1023.4hPa Calm   2mph /  3.2km/h 97% 0in /  0.0mm 179 W/m2
12:51 41 °F /  5 °C 40.3 °F /  4.6 °C 30.2in /  1023.4hPa Calm   1mph /  1.6km/h 97% 0in /  0.0mm 162 W/m2
12:56 41 °F /  5 °C 40.3 °F /  4.6 °C 30.2in /  1023.4hPa NE 0.9mph /  1.4km/h 3mph /  4.8km/h 97% 0in /  0.0mm 163 W/m2
13:01 40.8 °F /  4.9 °C 40.1 °F /  4.5 °C 30.2in /  1023.4hPa Calm   2mph /  3.2km/h 97% 0in /  0.0mm 118 W/m2
13:06 41.2 °F /  5.1 °C 40.5 °F /  4.7 °C 30.2in /  1023.4hPa Calm   1mph /  1.6km/h 97% 0in /  0.0mm 134 W/m2
13:11 41.4 °F /  5.2 °C 40.6 °F /  4.8 °C 30.2in /  1023.4hPa ESE 2mph /  3.2km/h 3mph /  4.8km/h 97% 0in /  0.0mm 83 W/m2
13:16 41.5 °F /  5.3 °C 40.8 °F /  4.9 °C 30.2in /  1023.4hPa ENE 0.9mph /  1.4km/h 2mph /  3.2km/h 97% 0in /  0.0mm 100 W/m2
13:21 41.7 °F /  5.4 °C 41 °F /  5 °C 30.2in /  1023.4hPa ENE 2mph /  3.2km/h 3mph /  4.8km/h 97% 0in /  0.0mm 102 W/m2
13:26 42.1 °F /  5.6 °C 41.4 °F /  5.2 °C 30.2in /  1023.4hPa East 0.9mph /  1.4km/h 2mph /  3.2km/h 97% 0in /  0.0mm 100 W/m2
13:31 42.4 °F /  5.8 °C 41.7 °F /  5.4 °C 30.2in /  1023.4hPa NE 2mph /  3.2km/h 2mph /  3.2km/h 97% 0in /  0.0mm 125 W/m2
13:36 43 °F /  6.1 °C 42.3 °F /  5.7 °C 30.2in /  1023.4hPa SE 2mph /  3.2km/h 2mph /  3.2km/h 97% 0in /  0.0mm 149 W/m2
13:41 43.3 °F /  6.3 °C 42.6 °F /  5.9 °C 30.2in /  1023.4hPa ESE 2mph /  3.2km/h 3mph /  4.8km/h 97% 0in /  0.0mm 206 W/m2
13:46 43.7 °F /  6.5 °C 43 °F /  6.1 °C 30.2in /  1023.4hPa ESE 0.9mph /  1.4km/h 3mph /  4.8km/h 97% 0in /  0.0mm 186 W/m2
13:51 44.1 °F /  6.7 °C 43.3 °F /  6.3 °C 30.2in /  1023.4hPa ESE 2mph /  3.2km/h 3mph /  4.8km/h 97% 0in /  0.0mm 107 W/m2
13:56 44.4 °F /  6.9 °C 43.7 °F /  6.5 °C 30.2in /  1023.4hPa ESE 2mph /  3.2km/h 2mph /  3.2km/h 97% 0in /  0.0mm 98 W/m2
14:01 44.8 °F /  7.1 °C 44.1 °F /  6.7 °C 30.2in /  1023.4hPa ENE 0.9mph /  1.4km/h 1mph /  1.6km/h 97% 0in /  0.0mm 81 W/m2
14:06 45.1 °F /  7.3 °C 44.4 °F /  6.9 °C 30.2in /  1023.4hPa ESE 0.9mph /  1.4km/h 2mph /  3.2km/h 97% 0in /  0.0mm 74 W/m2
14:11 45.1 °F /  7.3 °C 44.1 °F /  6.7 °C 30.2in /  1023.4hPa Calm   2mph /  3.2km/h 96% 0in /  0.0mm 74 W/m2
14:16 45.3 °F /  7.4 °C 44.1 °F /  6.7 °C 30.2in /  1023.4hPa ESE 2mph /  3.2km/h 2mph /  3.2km/h 95% 0in /  0.0mm 65 W/m2
14:21 45.7 °F /  7.6 °C 44.4 °F /  6.9 °C 30.2in /  1023.0hPa ESE 0.9mph /  1.4km/h 2mph /  3.2km/h 95% 0in /  0.0mm 70 W/m2
14:26 45.9 °F /  7.7 °C 44.2 °F /  6.8 °C 30.2in /  1023.0hPa Calm   1mph /  1.6km/h 94% 0in /  0.0mm 70 W/m2
14:31 45.9 °F /  7.7 °C 43.9 °F /  6.6 °C 30.2in /  1023.0hPa Calm   2mph /  3.2km/h 93% 0in /  0.0mm 67 W/m2
14:36 46 °F /  7.8 °C 44.1 °F /  6.7 °C 30.2in /  1023.0hPa Calm     93% 0in /  0.0mm 63 W/m2
14:41 46 °F /  7.8 °C 43.9 °F /  6.6 °C 30.2in /  1023.0hPa Calm   1mph /  1.6km/h 92% 0in /  0.0mm 63 W/m2
14:46 46.2 °F /  7.9 °C 44.1 °F /  6.7 °C 30.2in /  1023.0hPa Calm     92% 0in /  0.0mm 62 W/m2
14:51 46.6 °F /  8.1 °C 44.1 °F /  6.7 °C 30.2in /  1023.4hPa Calm     91% 0in /  0.0mm 63 W/m2
14:56 46.6 °F /  8.1 °C 43.9 °F /  6.6 °C 30.2in /  1023.0hPa Calm     90% 0in /  0.0mm 69 W/m2
15:01 46.8 °F /  8.2 °C 44.1 °F /  6.7 °C 30.2in /  1023.0hPa Calm     90% 0in /  0.0mm 72 W/m2
15:06 46.9 °F /  8.3 °C 44.2 °F /  6.8 °C 30.2in /  1023.0hPa Calm     90% 0in /  0.0mm 72 W/m2
15:11 46.9 °F /  8.3 °C 43.9 °F /  6.6 °C 30.2in /  1023.0hPa Calm     89% 0in /  0.0mm 65 W/m2
15:16 47.1 °F /  8.4 °C 43.7 °F /  6.5 °C 30.2in /  1023.0hPa Calm     88% 0in /  0.0mm 63 W/m2
15:21 47.1 °F /  8.4 °C 43.7 °F /  6.5 °C 30.2in /  1023.4hPa Calm     88% 0in /  0.0mm 62 W/m2
15:26 47.1 °F /  8.4 °C 43.7 °F /  6.5 °C 30.2in /  1023.0hPa Calm     88% 0in /  0.0mm 54 W/m2
15:31 47.1 °F /  8.4 °C 43.7 °F /  6.5 °C 30.2in /  1023.4hPa Calm     88% 0in /  0.0mm 47 W/m2
15:36 47.3 °F /  8.5 °C 43.9 °F /  6.6 °C 30.2in /  1023.4hPa Calm     88% 0in /  0.0mm 44 W/m2
15:41 47.1 °F /  8.4 °C 44.1 °F /  6.7 °C 30.2in /  1023.4hPa Calm     89% 0in /  0.0mm 40 W/m2
15:46 46.9 °F /  8.3 °C 43.9 °F /  6.6 °C 30.2in /  1023.4hPa Calm     89% 0in /  0.0mm 35 W/m2
15:51 46.9 °F /  8.3 °C 43.9 °F /  6.6 °C 30.2in /  1023.4hPa Calm     89% 0in /  0.0mm 30 W/m2
15:56 46.8 °F /  8.2 °C 43.7 °F /  6.5 °C 30.2in /  1023.4hPa Calm     89% 0in /  0.0mm 28 W/m2
16:01 46.4 °F /  8 °C 43.3 °F /  6.3 °C 30.2in /  1023.4hPa Calm     89% 0in /  0.0mm 25 W/m2
16:06 46.2 °F /  7.9 °C 43.2 °F /  6.2 °C 30.2in /  1023.4hPa Calm     89% 0in /  0.0mm 25 W/m2
16:11 45.9 °F /  7.7 °C 42.8 °F /  6 °C 30.2in /  1023.4hPa Calm     89% 0in /  0.0mm 23 W/m2
16:16 45.5 °F /  7.5 °C 42.8 °F /  6 °C 30.2in /  1023.4hPa Calm     90% 0in /  0.0mm 21 W/m2
16:21 45.1 °F /  7.3 °C 42.4 °F /  5.8 °C 30.2in /  1023.4hPa Calm     90% 0in /  0.0mm 19 W/m2
16:26 45 °F /  7.2 °C 42.3 °F /  5.7 °C 30.2in /  1023.4hPa Calm     90% 0in /  0.0mm 16 W/m2
16:31 44.6 °F /  7 °C 41.9 °F /  5.5 °C 30.2in /  1023.7hPa Calm     90% 0in /  0.0mm 14 W/m2
16:36 44.2 °F /  6.8 °C 41.5 °F /  5.3 °C 30.2in /  1023.4hPa Calm     90% 0in /  0.0mm 11 W/m2
16:41 44.1 °F /  6.7 °C 41.5 °F /  5.3 °C 30.2in /  1023.4hPa Calm     91% 0in /  0.0mm 9 W/m2
16:46 43.9 °F /  6.6 °C 41.4 °F /  5.2 °C 30.2in /  1023.4hPa Calm     91% 0in /  0.0mm 7 W/m2
16:52 43.5 °F /  6.4 °C 41.4 °F /  5.2 °C 30.2in /  1023.4hPa Calm     92% 0in /  0.0mm 7 W/m2
16:57 43.3 °F /  6.3 °C 41.2 °F /  5.1 °C 30.2in /  1023.4hPa Calm     92% 0in /  0.0mm 5 W/m2
17:02 43 °F /  6.1 °C 40.8 °F /  4.9 °C 30.2in /  1023.4hPa Calm     92% 0in /  0.0mm 0 W/m2
17:07 42.8 °F /  6 °C 40.6 °F /  4.8 °C 30.2in /  1023.7hPa Calm     92% 0in /  0.0mm 0 W/m2
17:12 42.4 °F /  5.8 °C 40.3 °F /  4.6 °C 30.2in /  1023.7hPa Calm     92% 0in /  0.0mm 0 W/m2
17:17 42.4 °F /  5.8 °C 40.3 °F /  4.6 °C 30.2in /  1023.7hPa Calm     92% 0in /  0.0mm 0 W/m2
17:22 42.1 °F /  5.6 °C 39.9 °F /  4.4 °C 30.2in /  1023.7hPa Calm     92% 0in /  0.0mm 0 W/m2
17:27 41.9 °F /  5.5 °C 40.1 °F /  4.5 °C 30.2in /  1024.0hPa Calm     93% 0in /  0.0mm 0 W/m2
17:32 41.7 °F /  5.4 °C 39.9 °F /  4.4 °C 30.2in /  1024.0hPa Calm     93% 0in /  0.0mm 0 W/m2
17:37 41.5 °F /  5.3 °C 39.7 °F /  4.3 °C 30.2in /  1024.0hPa Calm     93% 0in /  0.0mm 0 W/m2
17:42 41.4 °F /  5.2 °C 39.6 °F /  4.2 °C 30.2in /  1023.7hPa Calm     93% 0in /  0.0mm 0 W/m2
17:47 41.2 °F /  5.1 °C 39.4 °F /  4.1 °C 30.2in /  1023.7hPa Calm     93% 0in /  0.0mm 0 W/m2
17:52 41.2 °F /  5.1 °C 39.4 °F /  4.1 °C 30.2in /  1023.7hPa Calm     93% 0in /  0.0mm 0 W/m2
17:57 40.8 °F /  4.9 °C 39.2 °F /  4 °C 30.2in /  1023.7hPa Calm     94% 0in /  0.0mm 0 W/m2
18:02 40.8 °F /  4.9 °C 39.2 °F /  4 °C 30.2in /  1024.0hPa Calm     94% 0in /  0.0mm 0 W/m2
18:07 40.6 °F /  4.8 °C 39 °F /  3.9 °C 30.2in /  1024.0hPa Calm     94% 0in /  0.0mm 0 W/m2
18:12 40.5 °F /  4.7 °C 38.8 °F /  3.8 °C 30.2in /  1024.0hPa Calm     94% 0in /  0.0mm 0 W/m2
18:17 40.3 °F /  4.6 °C 38.7 °F /  3.7 °C 30.2in /  1024.0hPa Calm     94% 0in /  0.0mm 0 W/m2
18:22 40.1 °F /  4.5 °C 38.5 °F /  3.6 °C 30.2in /  1024.0hPa Calm     94% 0in /  0.0mm 0 W/m2
18:27 39.9 °F /  4.4 °C 38.3 °F /  3.5 °C 30.2in /  1024.0hPa Calm     94% 0in /  0.0mm 0 W/m2
18:32 40.1 °F /  4.5 °C 38.8 °F /  3.8 °C 30.3in /  1024.4hPa Calm     95% 0in /  0.0mm 0 W/m2
18:37 40.1 °F /  4.5 °C 38.8 °F /  3.8 °C 30.3in /  1024.4hPa Calm     95% 0in /  0.0mm 0 W/m2
18:47 39.7 °F /  4.3 °C 38.5 °F /  3.6 °C 30.3in /  1024.7hPa Calm     95% 0in /  0.0mm 0 W/m2
18:52 39.7 °F /  4.3 °C 38.5 °F /  3.6 °C 30.3in /  1024.7hPa Calm     95% 0in /  0.0mm 0 W/m2
18:57 39.6 °F /  4.2 °C 38.3 °F /  3.5 °C 30.3in /  1024.7hPa Calm     95% 0in /  0.0mm 0 W/m2
19:02 39.6 °F /  4.2 °C 38.3 °F /  3.5 °C 30.3in /  1024.7hPa Calm     95% 0in /  0.0mm 0 W/m2
19:07 39.6 °F /  4.2 °C 38.3 °F /  3.5 °C 30.3in /  1024.7hPa Calm     95% 0in /  0.0mm 0 W/m2
19:12 39.6 °F /  4.2 °C 38.3 °F /  3.5 °C 30.3in /  1025.1hPa Calm     95% 0in /  0.0mm 0 W/m2
19:17 39.4 °F /  4.1 °C 38.1 °F /  3.4 °C 30.3in /  1025.1hPa Calm     95% 0in /  0.0mm 0 W/m2
19:22 39.6 °F /  4.2 °C 38.3 °F /  3.5 °C 30.3in /  1025.1hPa Calm     95% 0in /  0.0mm 0 W/m2
19:27 39.7 °F /  4.3 °C 38.5 °F /  3.6 °C 30.3in /  1025.1hPa Calm   3mph /  4.8km/h 95% 0in /  0.0mm 0 W/m2
19:32 39.9 °F /  4.4 °C 38.7 °F /  3.7 °C 30.3in /  1025.1hPa WNW 0.9mph /  1.4km/h 3mph /  4.8km/h 95% 0in /  0.0mm 0 W/m2
19:37 39.9 °F /  4.4 °C 38.8 °F /  3.8 °C 30.3in /  1025.1hPa Calm   1mph /  1.6km/h 96% 0in /  0.0mm 0 W/m2
19:42 40.1 °F /  4.5 °C 39 °F /  3.9 °C 30.3in /  1025.1hPa Calm   2mph /  3.2km/h 96% 0in /  0.0mm 0 W/m2
19:47 40.3 °F /  4.6 °C 39.2 °F /  4 °C 30.3in /  1025.1hPa Calm   1mph /  1.6km/h 96% 0in /  0.0mm 0 W/m2
19:52 40.3 °F /  4.6 °C 39.2 °F /  4 °C 30.3in /  1025.1hPa Calm   2mph /  3.2km/h 96% 0in /  0.0mm 0 W/m2
19:57 40.3 °F /  4.6 °C 39.2 °F /  4 °C 30.3in /  1025.1hPa Calm   1mph /  1.6km/h 96% 0in /  0.0mm 0 W/m2
20:02 40.5 °F /  4.7 °C 39.4 °F /  4.1 °C 30.3in /  1025.1hPa Calm   2mph /  3.2km/h 96% 0in /  0.0mm 0 W/m2
20:07 40.5 °F /  4.7 °C 39.4 °F /  4.1 °C 30.3in /  1025.1hPa Calm     96% 0in /  0.0mm 0 W/m2
20:12 40.3 °F /  4.6 °C 39.2 °F /  4 °C 30.3in /  1025.1hPa Calm     96% 0in /  0.0mm 0 W/m2
20:17 40.3 °F /  4.6 °C 39.2 °F /  4 °C 30.3in /  1025.1hPa Calm     96% 0in /  0.0mm 0 W/m2
20:22 40.1 °F /  4.5 °C 39 °F /  3.9 °C 30.3in /  1025.1hPa Calm     96% 0in /  0.0mm 0 W/m2
20:27 39.9 °F /  4.4 °C 38.8 °F /  3.8 °C 30.3in /  1025.1hPa Calm     96% 0in /  0.0mm 0 W/m2
20:32 39.9 °F /  4.4 °C 38.8 °F /  3.8 °C 30.3in /  1025.1hPa Calm     96% 0in /  0.0mm 0 W/m2
20:37 39.7 °F /  4.3 °C 38.7 °F /  3.7 °C 30.3in /  1025.1hPa Calm     96% 0in /  0.0mm 0 W/m2
20:42 39.6 °F /  4.2 °C 38.5 °F /  3.6 °C 30.3in /  1025.1hPa Calm     96% 0in /  0.0mm 0 W/m2
20:47 39.4 °F /  4.1 °C 38.1 °F /  3.4 °C 30.3in /  1025.1hPa Calm     95% 0in /  0.0mm 0 W/m2
20:52 39 °F /  3.9 °C 37.8 °F /  3.2 °C 30.3in /  1025.1hPa Calm     95% 0in /  0.0mm 0 W/m2
20:57 38.8 °F /  3.8 °C 37.6 °F /  3.1 °C 30.3in /  1025.1hPa Calm     95% 0in /  0.0mm 0 W/m2
21:02 38.7 °F /  3.7 °C 37.4 °F /  3 °C 30.3in /  1025.1hPa Calm     95% 0in /  0.0mm 0 W/m2
21:07 38.5 °F /  3.6 °C 37.2 °F /  2.9 °C 30.3in /  1025.1hPa Calm     95% 0in /  0.0mm 0 W/m2
21:12 38.5 °F /  3.6 °C 37.4 °F /  3 °C 30.3in /  1025.4hPa Calm     96% 0in /  0.0mm 0 W/m2
21:17 38.3 °F /  3.5 °C 37.2 °F /  2.9 °C 30.3in /  1025.4hPa Calm     96% 0in /  0.0mm 0 W/m2
21:22 38.1 °F /  3.4 °C 37 °F /  2.8 °C 30.3in /  1025.4hPa Calm     96% 0in /  0.0mm 0 W/m2
21:27 37.9 °F /  3.3 °C 36.7 °F /  2.6 °C 30.3in /  1025.4hPa Calm     95% 0in /  0.0mm 0 W/m2
21:32 37.9 °F /  3.3 °C 36.9 °F /  2.7 °C 30.3in /  1025.4hPa Calm     96% 0in /  0.0mm 0 W/m2
21:37 37.8 °F /  3.2 °C 36.7 °F /  2.6 °C 30.3in /  1025.4hPa Calm     96% 0in /  0.0mm 0 W/m2
21:42 37.6 °F /  3.1 °C 36.5 °F /  2.5 °C 30.3in /  1025.4hPa Calm     96% 0in /  0.0mm 0 W/m2
21:47 37.6 °F /  3.1 °C 36.5 °F /  2.5 °C 30.3in /  1025.4hPa Calm     96% 0in /  0.0mm 0 W/m2
21:52 37.2 °F /  2.9 °C 36.1 °F /  2.3 °C 30.3in /  1025.4hPa Calm     96% 0in /  0.0mm 0 W/m2
21:57 37.2 °F /  2.9 °C 36.1 °F /  2.3 °C 30.3in /  1025.4hPa Calm     96% 0in /  0.0mm 0 W/m2
22:02 37 °F /  2.8 °C 36 °F /  2.2 °C 30.3in /  1025.4hPa Calm     96% 0in /  0.0mm 0 W/m2
22:07 37 °F /  2.8 °C 36 °F /  2.2 °C 30.3in /  1025.4hPa Calm     96% 0in /  0.0mm 0 W/m2
22:12 36.9 °F /  2.7 °C 35.8 °F /  2.1 °C 30.3in /  1025.4hPa Calm     96% 0in /  0.0mm 0 W/m2
22:17 36.7 °F /  2.6 °C 35.6 °F /  2 °C 30.3in /  1025.4hPa Calm     96% 0in /  0.0mm 0 W/m2
22:22 36.7 °F /  2.6 °C 35.6 °F /  2 °C 30.3in /  1025.4hPa Calm     96% 0in /  0.0mm 0 W/m2
22:27 36.5 °F /  2.5 °C 35.4 °F /  1.9 °C 30.3in /  1025.4hPa Calm     96% 0in /  0.0mm 0 W/m2
22:32 36.3 °F /  2.4 °C 35.2 °F /  1.8 °C 30.3in /  1025.4hPa Calm     96% 0in /  0.0mm 0 W/m2
22:37 36.1 °F /  2.3 °C 35.1 °F /  1.7 °C 30.3in /  1025.4hPa Calm     96% 0in /  0.0mm 0 W/m2
22:42 36.1 °F /  2.3 °C 35.1 °F /  1.7 °C 30.3in /  1025.4hPa Calm     96% 0in /  0.0mm 0 W/m2
22:47 36 °F /  2.2 °C 34.9 °F /  1.6 °C 30.3in /  1025.4hPa Calm     96% 0in /  0.0mm 0 W/m2
22:52 36 °F /  2.2 °C 34.9 °F /  1.6 °C 30.3in /  1025.4hPa Calm     96% 0in /  0.0mm 0 W/m2
22:57 36 °F /  2.2 °C 34.9 °F /  1.6 °C 30.3in /  1025.4hPa Calm     96% 0in /  0.0mm 0 W/m2
23:02 35.8 °F /  2.1 °C 34.7 °F /  1.5 °C 30.3in /  1025.4hPa Calm     96% 0in /  0.0mm 0 W/m2
23:07 35.8 °F /  2.1 °C 34.7 °F /  1.5 °C 30.3in /  1025.4hPa Calm     96% 0in /  0.0mm 0 W/m2
23:12 35.8 °F /  2.1 °C 34.7 °F /  1.5 °C 30.3in /  1025.4hPa Calm     96% 0in /  0.0mm 0 W/m2
23:17 35.6 °F /  2 °C 34.5 °F /  1.4 °C 30.3in /  1025.7hPa Calm     96% 0in /  0.0mm 0 W/m2
23:22 35.4 °F /  1.9 °C 34.3 °F /  1.3 °C 30.3in /  1025.7hPa Calm     96% 0in /  0.0mm 0 W/m2
23:27 35.2 °F /  1.8 °C 34.2 °F /  1.2 °C 30.3in /  1025.7hPa Calm     96% 0in /  0.0mm 0 W/m2
23:33 35.2 °F /  1.8 °C 34.2 °F /  1.2 °C 30.3in /  1025.7hPa Calm     96% 0in /  0.0mm 0 W/m2
23:38 35.1 °F /  1.7 °C 34 °F /  1.1 °C 30.3in /  1025.7hPa Calm     96% 0in /  0.0mm 0 W/m2
23:43 34.9 °F /  1.6 °C 33.8 °F /  1 °C 30.3in /  1025.4hPa Calm     96% 0in /  0.0mm 0 W/m2
23:48 34.9 °F /  1.6 °C 33.8 °F /  1 °C 30.3in /  1025.7hPa Calm     96% 0in /  0.0mm 0 W/m2
23:53 34.9 °F /  1.6 °C 33.8 °F /  1 °C 30.3in /  1025.7hPa Calm     96% 0in /  0.0mm 0 W/m2
23:58 34.7 °F /  1.5 °C 33.6 °F /  0.9 °C 30.3in /  1025.7hPa Calm     96% 0in /  0.0mm 0 W/m2
Juneau County Weather
Compliments of Weather Underground - 4 mb